Kenton, OK

7:04 AM CST on December 19, 2014 (GMT -0600)
Dalhart Municipal | Change Station
CLOSE
Current Station
Airport
Location: Dalhart,
Elevation: 3990 ft
Nearby Weather Stations

Elev 3990 ft 36.03 °N, 102.55 °W | Updated 11 minutes ago

Mostly Cloudy
Mostly Cloudy
32 °F
Feels Like 28 °F
N
5
Wind Variable Wind from WNW

Today
High -- | Low -- °F
--% Chance of Precip.
Yesterday
High -- | Low -- °F
Precip. -- in
7:59 AM 5:37 PM
Waning Crescent, 8% visible
Pressure 30.17 in
Visibility 1.5 miles
Clouds Overcast 200 ft
Windchill 28 °F
Dew Point 30 °F
Humidity 92%
Rainfall 0.00 in
Snow Depth Not available.
UV 0 out of 12
Pollen .10 out of 12
Air Quality Not available.
Flu Activity Not available.
METAR KDHT 191253Z AUTO 29004KT 1 1/2SM BR OVC002 00/M01 A3013 RMK AO2 SLP215 T00001011

More Conditions Fewer Conditions

Pressure 30.17 in
Visibility 1.5 miles
Clouds Overcast 200 ft
Windchill 28 °F
Dew Point 30 °F
Humidity 92%
Rainfall 0.00 in
Snow Depth Not available.
UV 0 out of 12
Pollen .10 out of 12
Air Quality Not available.
Flu Activity Not available.
METAR KDHT 191253Z AUTO 29004KT 1 1/2SM BR OVC002 00/M01 A3013 RMK AO2 SLP215 T00001011

More Conditions Fewer Conditions

Nowcast | as of 6:15 am CST on December 19, 2014

Light showers will continue to move across the southern and eastern Texas panhandles through 8 am this morning while patchy fog affects both the Oklahoma and Texas panhandles. Light precipitation amounts could be possible of a few hundredths of an inch. Areas affected by the fog can expect visibilities to range between 1 and 5 miles.

×

10-Day Weather Forecast

Almanac

Astronomy

Dec. 19, 2014 Rise Set
Actual Time
Civil Twilight
Nautical Twilight
Astronomical Twilight
Moon
Length of Visible Light
Length of Day
Tomorrow will be .
, % of the Moon is Illuminated

Today's Extremes

State Highs State Lows

Community

WunderPhotos

Upload Photos

1,778,983 photos uploaded!

WunderBlogs® & News

Nearby

Air Quality

  Air Quality AQ Index Pollutant
Not available.

Snow Depth

Station Depth Elevation

Earthquake Activity

City Distance Mag. Time & Date
Minimum magnitude displayed is 2.5.

Coastal Water Temperatures

Place Temperature

Nearby Weather Stations